Time;durP1;ratioP1;P1;durP2;ratioP2;P2;SDS_P1;SDS_P2;PMS_P1;PMS_P2;Temp;Humidity;BMP_temperature;BMP_pressure;BME280_temperature;BME280_humidity;BME280_pressure;Samples;Min_cycle;Max_cycle;Signal;HPM_P1;HPM_P2
2022/02/07 00:00:17;;;;;;;;;;;;;;;18.54;56.79;100597.63;4995858;28;1426;-35
2022/02/07 00:05:35;;;;;;;;;;;;;;;18.49;56.73;100576.63;4980783;28;3094;-34
2022/02/07 00:08:04;;;;;;;;;;;;;;;18.51;56.66;100584.53;4990427;28;1592;-34
2022/02/07 00:10:31;;;;;;;;;;;;;;;18.49;56.98;100587.34;4991766;28;1562;-34
2022/02/07 00:13:02;;;;;;;;;;;;;;;18.43;57.37;100583.38;4992267;28;1387;-34
2022/02/07 00:15:28;;;;;;;;;;;;;;;18.42;57.21;100570.13;4994215;28;1955;-34
2022/02/07 00:17:55;;;;;;;;;;;;;;;18.45;57.26;100576.06;4981947;28;1682;-34
2022/02/07 00:20:32;;;;;;;;;;;;;;;18.45;57.41;100562.66;4981736;28;1159;-34
2022/02/07 00:22:58;;;;;;;;;;;;;;;18.46;56.84;100560.81;4993787;28;1835;-34
2022/02/07 00:25:26;;;;;;;;;;;;;;;18.50;56.75;100559.56;4988740;28;1910;-34
2022/02/07 00:27:53;;;;;;;;;;;;;;;18.52;56.36;100565.63;4982496;28;1527;-34
2022/02/07 00:30:24;;;;;;;;;;;;;;;18.52;56.87;100565.63;4989630;28;1437;-35
2022/02/07 00:32:51;;;;;;;;;;;;;;;18.44;57.07;100562.78;4985612;28;1627;-34
2022/02/07 00:35:20;;;;;;;;;;;;;;;18.44;56.99;100562.78;4989226;28;1505;-34
2022/02/07 00:37:51;;;;;;;;;;;;;;;18.40;56.92;100545.31;4993824;28;1398;-34
2022/02/07 00:43:32;;;;;;;;;;;;;;;18.45;57.11;100535.06;4987608;28;1867;-34
2022/02/07 00:46:09;;;;;;;;;;;;;;;18.44;56.81;100536.88;4989913;28;1981;-35
2022/02/07 00:48:37;;;;;;;;;;;;;;;18.45;56.54;100521.66;4988380;28;1605;-35
2022/02/07 00:51:14;;;;;;;;;;;;;;;18.46;56.69;100523.34;4980098;28;1788;-34
2022/02/07 00:53:43;;;;;;;;;;;;;;;18.47;56.91;100515.19;4993277;28;1767;-34
2022/02/07 00:56:13;;;;;;;;;;;;;;;18.43;56.89;100511.09;4986746;28;1491;-34
2022/02/07 00:58:43;;;;;;;;;;;;;;;18.43;56.42;100524.47;4991983;28;1992;-34
2022/02/07 01:01:13;;;;;;;;;;;;;;;18.43;57.03;100505.72;4991535;28;1497;-34
2022/02/07 01:03:43;;;;;;;;;;;;;;;18.39;56.90;100484.75;4984814;28;1616;-34
2022/02/07 01:06:13;;;;;;;;;;;;;;;18.36;56.79;100490.34;4983633;28;1907;-34
2022/02/07 01:08:48;;;;;;;;;;;;;;;18.35;57.22;100486.84;4982517;28;1674;-34
2022/02/07 01:11:22;;;;;;;;;;;;;;;18.35;56.81;100477.97;4995131;28;1790;-34
2022/02/07 01:19:58;;;;;;;;;;;;;;;18.40;56.63;100444.44;4993748;28;1807;-34
2022/02/07 01:47:43;;;;;;;;;;;;;;;18.79;54.85;100408.78;4989982;28;1940;-34
2022/02/07 01:50:49;;;;;;;;;;;;;;;18.79;55.58;100401.59;4985452;28;1081;-34
2022/02/07 01:53:31;;;;;;;;;;;;;;;18.75;55.98;100405.53;4980165;28;1949;-34
2022/02/07 01:56:03;;;;;;;;;;;;;;;18.71;55.25;100379.19;4992640;28;1686;-34
2022/02/07 01:58:31;;;;;;;;;;;;;;;18.71;55.75;100398.78;4981536;28;1832;-34
2022/02/07 02:00:57;;;;;;;;;;;;;;;18.65;55.24;100377.91;4981964;28;1638;-34
2022/02/07 02:03:32;;;;;;;;;;;;;;;18.63;54.27;100375.38;4975807;28;1780;-34
2022/02/07 02:06:07;;;;;;;;;;;;;;;18.59;54.71;100363.25;4990133;28;1969;-34
2022/02/07 02:08:44;;;;;;;;;;;;;;;18.58;55.13;100361.59;4991280;28;1604;-34
2022/02/07 02:11:13;;;;;;;;;;;;;;;18.56;55.03;100368.91;4993878;28;1520;-34
2022/02/07 02:13:56;;;;;;;;;;;;;;;18.57;55.06;100361.72;4989472;28;1740;-33
2022/02/07 02:16:29;;;;;;;;;;;;;;;18.52;54.88;100348.75;4981585;28;1609;-34
2022/02/07 02:35:51;;;;;;;;;;;;;;;18.45;56.19;100320.88;4990848;28;2265;-34
2022/02/07 02:38:26;;;;;;;;;;;;;;;18.42;55.94;100318.47;4990151;28;1706;-33
2022/02/07 02:46:27;;;;;;;;;;;;;;;18.37;55.99;100308.19;4990327;28;1979;-34
2022/02/07 02:49:00;;;;;;;;;;;;;;;18.36;56.26;100308.31;4991291;28;1230;-34
2022/02/07 02:51:27;;;;;;;;;;;;;;;18.31;56.14;100305.25;4996286;28;2149;-34
2022/02/07 02:53:54;;;;;;;;;;;;;;;18.31;56.11;100315.94;4996364;28;2043;-34
2022/02/07 02:56:25;;;;;;;;;;;;;;;18.32;56.08;100290.84;4991641;28;1722;-34
2022/02/07 02:58:51;;;;;;;;;;;;;;;18.27;56.13;100315.38;4988574;28;2035;-34
2022/02/07 03:01:43;;;;;;;;;;;;;;;18.34;56.18;100315.66;5107294;22;3642;-36
2022/02/07 03:04:09;;;;;;;;;;;;;;;18.32;56.02;100312.28;5031770;28;1492;-34
2022/02/07 03:06:38;;;;;;;;;;;;;;;18.32;56.02;100309.59;5034366;28;1906;-34
2022/02/07 03:09:13;;;;;;;;;;;;;;;18.33;56.06;100303.28;5030631;28;1408;-35
2022/02/07 03:11:44;;;;;;;;;;;;;;;18.31;55.74;100295.38;5025702;28;995;-34
2022/02/07 03:14:19;;;;;;;;;;;;;;;18.36;55.37;100294.94;5021536;28;1435;-34
2022/02/07 03:16:50;;;;;;;;;;;;;;;18.26;56.12;100309.19;5029605;28;1568;-33
2022/02/07 03:19:25;;;;;;;;;;;;;;;18.24;56.24;100296.91;5029518;28;1754;-34
2022/02/07 03:21:54;;;;;;;;;;;;;;;18.21;56.13;100292.69;5030023;28;1437;-34
2022/02/07 03:24:25;;;;;;;;;;;;;;;18.23;55.70;100288.06;5032225;28;1595;-34
2022/02/07 03:27:00;;;;;;;;;;;;;;;18.25;56.31;100291.44;5024533;28;2027;-34
2022/02/07 03:29:26;;;;;;;;;;;;;;;18.25;56.25;100287.91;5024743;28;1441;-34
2022/02/07 03:31:55;;;;;;;;;;;;;;;18.25;56.24;100291.44;5029493;28;1754;-34
2022/02/07 03:34:26;;;;;;;;;;;;;;;18.21;56.35;100279.31;5029198;28;1197;-34
2022/02/07 03:36:55;;;;;;;;;;;;;;;18.25;56.46;100286.06;5031159;28;1366;-34
2022/02/07 03:39:22;;;;;;;;;;;;;;;18.19;56.25;100281.28;5029620;28;1556;-34
2022/02/07 03:41:48;;;;;;;;;;;;;;;18.17;56.27;100275.25;5029188;28;1535;-34
2022/02/07 03:44:18;;;;;;;;;;;;;;;18.19;56.26;100275.94;5033614;28;1446;-34
2022/02/07 03:46:47;;;;;;;;;;;;;;;18.20;56.17;100271.44;5026677;28;1906;-34
2022/02/07 03:49:17;;;;;;;;;;;;;;;18.21;56.34;100291.88;5023278;28;1655;-34
2022/02/07 03:51:47;;;;;;;;;;;;;;;18.19;56.03;100275.94;5029407;28;1600;-33
2022/02/07 03:54:13;;;;;;;;;;;;;;;18.18;56.30;100255.50;5026975;28;1442;-34
2022/02/07 03:56:43;;;;;;;;;;;;;;;18.18;56.08;100270.72;5028932;28;1456;-34
2022/02/07 03:59:12;;;;;;;;;;;;;;;18.22;56.01;100270.31;5029108;28;2102;-34
2022/02/07 04:01:47;;;;;;;;;;;;;;;18.15;56.25;100258.47;5027203;28;1628;-34
2022/02/07 04:04:15;;;;;;;;;;;;;;;18.12;56.47;100253.41;5028790;28;1635;-34
2022/02/07 04:06:43;;;;;;;;;;;;;;;18.13;56.32;100244.41;5024117;28;1971;-34
2022/02/07 04:09:13;;;;;;;;;;;;;;;18.15;56.49;100253.13;5031191;28;1789;-34
2022/02/07 04:11:45;;;;;;;;;;;;;;;18.15;55.93;100241.59;5021545;28;1456;-34
2022/02/07 04:14:21;;;;;;;;;;;;;;;18.11;56.08;100256.25;5024445;28;1774;-34
2022/02/07 04:16:53;;;;;;;;;;;;;;;18.19;55.88;100259.88;5031532;28;1396;-34
2022/02/07 04:19:29;;;;;;;;;;;;;;;18.21;55.87;100246.38;5023166;28;1413;-34
2022/02/07 04:21:59;;;;;;;;;;;;;;;18.25;55.45;100258.47;5032083;28;1744;-34
2022/02/07 04:24:25;;;;;;;;;;;;;;;18.22;55.54;100243.56;5024716;28;1719;-34
2022/02/07 04:26:52;;;;;;;;;;;;;;;18.21;56.08;100243.69;5026690;28;1997;-34
2022/02/07 04:32:13;;;;;;;;;;;;;;;18.20;55.83;100256.19;5027754;28;2441;-34
2022/02/07 04:34:39;;;;;;;;;;;;;;;18.25;55.69;100227.19;5030100;28;1638;-34
2022/02/07 04:37:09;;;;;;;;;;;;;;;18.41;55.18;100226.59;5023930;28;1603;-34
2022/02/07 04:39:37;;;;;;;;;;;;;;;18.59;55.10;100229.38;5026790;28;1665;-34
2022/02/07 04:42:13;;;;;;;;;;;;;;;18.74;54.60;100243.13;5035103;28;1464;-34
2022/02/07 04:44:52;;;;;;;;;;;;;;;18.84;54.11;100225.22;5021752;28;1911;-34
2022/02/07 04:47:41;;;;;;;;;;;;;;;18.93;53.97;100225.31;5029404;28;1905;-34
2022/02/07 04:50:24;;;;;;;;;;;;;;;18.93;53.43;100218.13;5031537;28;1425;-34
2022/02/07 04:53:11;;;;;;;;;;;;;;;18.95;54.05;100218.81;5030381;28;1075;-34
2022/02/07 04:55:45;;;;;;;;;;;;;;;18.92;53.99;100232.53;5034077;28;1523;-34
2022/02/07 04:58:27;;;;;;;;;;;;;;;18.90;54.15;100214.88;5030668;28;1687;-34
2022/02/07 05:01:08;;;;;;;;;;;;;;;18.87;54.50;100210.69;5016854;28;2000;-33
2022/02/07 05:03:44;;;;;;;;;;;;;;;18.77;53.69;100207.19;5017607;28;1351;-36
2022/02/07 05:14:40;;;;;;;;;;;;;;;18.64;54.75;100212.84;5023187;28;1669;-34
2022/02/07 05:17:13;;;;;;;;;;;;;;;18.60;53.89;100198.94;5028170;28;1321;-34
2022/02/07 05:19:45;;;;;;;;;;;;;;;18.60;54.21;100212.31;5023497;28;1751;-34
2022/02/07 05:22:30;;;;;;;;;;;;;;;18.57;54.39;100209.91;5014902;28;1704;-34
2022/02/07 05:24:57;;;;;;;;;;;;;;;18.59;54.72;100218.66;5023847;28;1822;-34
2022/02/07 05:27:27;;;;;;;;;;;;;;;18.55;54.20;100205.72;5033443;28;1981;-34
2022/02/07 05:29:55;;;;;;;;;;;;;;;18.52;54.51;100209.50;5021201;28;1702;-34
2022/02/07 05:32:24;;;;;;;;;;;;;;;18.66;53.98;100211.72;5030999;28;1829;-34
2022/02/07 05:34:55;;;;;;;;;;;;;;;19.18;52.80;100208.56;5028466;28;1367;-33
2022/02/07 05:37:36;;;;;;;;;;;;;;;19.55;52.00;100196.00;5026159;28;1496;-33
2022/02/07 05:40:11;;;;;;;;;;;;;;;19.74;51.88;100192.38;5033228;28;1581;-33
2022/02/07 05:42:48;;;;;;;;;;;;;;;19.93;52.08;100210.97;5026828;28;1385;-34
2022/02/07 05:45:15;;;;;;;;;;;;;;;20.01;51.18;100191.41;5032156;28;1363;-33
2022/02/07 05:47:41;;;;;;;;;;;;;;;19.99;51.88;100190.72;5029736;28;1976;-34
2022/02/07 05:50:12;;;;;;;;;;;;;;;20.16;52.13;100200.59;5020832;28;1788;-33
2022/02/07 05:52:38;;;;;;;;;;;;;;;20.20;51.48;100201.97;5017862;28;1896;-33
2022/02/07 05:55:09;;;;;;;;;;;;;;;20.25;52.29;100207.72;5019967;28;1511;-34
2022/02/07 05:57:37;;;;;;;;;;;;;;;20.16;52.19;100214.00;5032002;28;1750;-34
2022/02/07 06:00:19;;;;;;;;;;;;;;;19.90;52.31;100219.34;5027321;28;1519;-34
2022/02/07 06:02:58;;;;;;;;;;;;;;;19.81;53.19;100221.09;5024833;28;1404;-33
2022/02/07 06:05:26;;;;;;;;;;;;;;;19.81;53.33;100205.00;5027285;28;1668;-33
2022/02/07 06:07:55;;;;;;;;;;;;;;;19.94;53.18;100219.88;5030177;28;1906;-33
2022/02/07 06:10:24;;;;;;;;;;;;;;;20.06;52.11;100203.38;5019026;28;1075;-34
2022/02/07 06:12:53;;;;;;;;;;;;;;;19.83;52.12;100210.22;5029155;28;1678;-34
2022/02/07 06:15:24;;;;;;;;;;;;;;;19.64;53.16;100208.53;5017957;28;1388;-33
2022/02/07 06:17:58;;;;;;;;;;;;;;;19.56;53.74;100206.59;5032676;28;1583;-33
2022/02/07 06:20:30;;;;;;;;;;;;;;;19.42;53.54;100218.69;5030361;28;1535;-33
2022/02/07 06:22:58;;;;;;;;;;;;;;;19.34;53.26;100221.28;5034860;28;2608;-33
2022/02/07 06:25:28;;;;;;;;;;;;;;;19.27;53.87;100214.84;5034462;28;1829;-33
2022/02/07 06:27:57;;;;;;;;;;;;;;;19.23;53.26;100211.59;5033392;28;2309;-33
2022/02/07 06:30:26;;;;;;;;;;;;;;;19.20;53.49;100211.91;5022902;28;1615;-33
2022/02/07 06:32:56;;;;;;;;;;;;;;;19.15;53.74;100197.28;5030713;28;1615;-34
2022/02/07 06:35:23;;;;;;;;;;;;;;;19.10;53.31;100188.84;5027338;28;1652;-33
2022/02/07 06:37:54;;;;;;;;;;;;;;;19.08;54.13;100184.47;5033764;28;1357;-34
2022/02/07 06:40:24;;;;;;;;;;;;;;;19.05;53.71;100182.09;5027869;28;1557;-33
2022/02/07 06:42:53;;;;;;;;;;;;;;;19.00;54.19;100184.41;5022092;28;1594;-33
2022/02/07 06:45:20;;;;;;;;;;;;;;;19.00;53.64;100192.44;5028222;28;1731;-33
2022/02/07 06:47:49;;;;;;;;;;;;;;;18.95;53.97;100175.94;5034728;28;1992;-34
2022/02/07 06:50:16;;;;;;;;;;;;;;;18.96;54.46;100174.97;5033694;28;1406;-35
2022/02/07 06:52:43;;;;;;;;;;;;;;;18.95;54.40;100167.91;5026526;28;1058;-33
2022/02/07 06:55:09;;;;;;;;;;;;;;;18.93;53.58;100167.22;5024861;28;1750;-34
2022/02/07 06:57:39;;;;;;;;;;;;;;;18.94;54.35;100168.91;5018226;28;1625;-33
2022/02/07 07:00:11;;;;;;;;;;;;;;;18.92;53.83;100168.22;5026191;28;2045;-34
2022/02/07 07:02:43;;;;;;;;;;;;;;;18.91;54.10;100161.16;5031574;28;1758;-34
2022/02/07 07:05:15;;;;;;;;;;;;;;;18.90;53.87;100161.31;5035711;28;1652;-34
2022/02/07 07:07:41;;;;;;;;;;;;;;;18.89;54.11;100155.13;5030891;28;1906;-33
2022/02/07 07:10:11;;;;;;;;;;;;;;;18.87;54.48;100159.78;5031541;28;1810;-34
2022/02/07 07:12:38;;;;;;;;;;;;;;;18.84;54.33;100157.38;5035655;28;1715;-34
2022/02/07 07:15:10;;;;;;;;;;;;;;;18.86;53.97;100161.63;5018096;28;1604;-34
2022/02/07 07:17:53;;;;;;;;;;;;;;;18.84;53.98;100147.53;5024508;28;1722;-34
2022/02/07 07:20:31;;;;;;;;;;;;;;;18.78;53.83;100137.38;5032436;28;1915;-33
2022/02/07 07:23:01;;;;;;;;;;;;;;;18.80;54.14;100150.63;5022148;28;1754;-36
2022/02/07 07:25:41;;;;;;;;;;;;;;;18.77;54.33;100143.72;5026973;28;1268;-34
2022/02/07 07:28:14;;;;;;;;;;;;;;;18.79;54.30;100146.25;5032851;28;1906;-34
2022/02/07 07:30:56;;;;;;;;;;;;;;;18.78;54.08;100136.53;5030204;28;1758;-33
2022/02/07 07:33:28;;;;;;;;;;;;;;;18.78;54.33;100133.84;5034021;28;1671;-34
2022/02/07 07:36:01;;;;;;;;;;;;;;;18.78;54.23;100131.16;5032573;28;1814;-34
2022/02/07 07:38:27;;;;;;;;;;;;;;;18.77;54.33;100124.13;5026565;28;1789;-33
2022/02/07 07:40:56;;;;;;;;;;;;;;;18.79;53.90;100123.03;5026259;28;1948;-33
2022/02/07 07:43:26;;;;;;;;;;;;;;;18.82;54.26;100117.38;5032976;28;1746;-34
2022/02/07 07:46:00;;;;;;;;;;;;;;;18.82;54.50;100113.84;5025238;28;1640;-33
2022/02/07 07:48:28;;;;;;;;;;;;;;;18.85;53.82;100126.94;5027218;28;1965;-34
2022/02/07 07:51:05;;;;;;;;;;;;;;;19.03;53.68;100113.56;5029261;28;1616;-34
2022/02/07 07:53:45;;;;;;;;;;;;;;;18.95;54.55;100095.56;5034499;28;1597;-33
2022/02/07 08:01:48;;;;;;;;;;;;;;;18.84;54.63;100088.59;5028612;28;1782;-33
2022/02/07 08:04:16;;;;;;;;;;;;;;;18.89;54.95;100082.78;5028458;28;1607;-33
2022/02/07 08:06:50;;;;;;;;;;;;;;;19.38;53.45;100088.63;5030221;28;1902;-33
2022/02/07 08:09:47;;;;;;;;;;;;;;;19.79;52.46;100059.44;5027947;28;1816;-33
2022/02/07 08:12:15;;;;;;;;;;;;;;;20.11;52.48;100055.25;5024424;28;1246;-33
2022/02/07 08:14:45;;;;;;;;;;;;;;;20.35;53.50;100059.91;5025261;28;1063;-32
2022/02/07 08:17:12;;;;;;;;;;;;;;;20.56;51.79;100051.41;5031648;28;1747;-32
2022/02/07 08:19:45;;;;;;;;;;;;;;;20.43;53.34;100053.72;5030724;28;1462;-33
2022/02/07 08:22:17;;;;;;;;;;;;;;;20.73;52.01;100044.28;5021602;28;1793;-33
2022/02/07 08:24:44;;;;;;;;;;;;;;;20.53;52.22;100030.28;5028212;28;1723;-32
2022/02/07 08:27:11;;;;;;;;;;;;;;;20.24;52.66;100026.13;5035003;28;1981;-32
2022/02/07 08:29:38;;;;;;;;;;;;;;;20.57;52.78;100020.03;5032450;28;1943;-33
2022/02/07 08:32:08;;;;;;;;;;;;;;;20.49;52.26;100020.84;5015793;28;1630;-33
2022/02/07 08:34:38;;;;;;;;;;;;;;;20.75;53.08;100025.28;5031523;28;1972;-33
2022/02/07 08:37:08;;;;;;;;;;;;;;;21.03;52.16;100017.81;5027766;28;1675;-32
2022/02/07 08:39:41;;;;;;;;;;;;;;;20.54;52.07;100005.06;5027992;28;1470;-32
2022/02/07 08:42:12;;;;;;;;;;;;;;;20.57;53.02;100020.03;5025244;28;1111;-33
2022/02/07 08:44:44;;;;;;;;;;;;;;;20.39;51.90;100002.19;5026348;28;1735;-33
2022/02/07 08:47:11;;;;;;;;;;;;;;;20.48;52.39;100008.44;5030701;28;1902;-32
2022/02/07 08:49:39;;;;;;;;;;;;;;;20.26;52.90;99999.97;5021396;28;1760;-32
2022/02/07 08:52:20;;;;;;;;;;;;;;;20.17;53.36;100006.28;5027879;28;1904;-33
2022/02/07 08:54:55;;;;;;;;;;;;;;;20.17;54.26;100003.59;5031073;28;1654;-32
2022/02/07 08:57:29;;;;;;;;;;;;;;;20.17;52.65;99990.19;5034006;28;1394;-32
2022/02/07 09:00:06;;;;;;;;;;;;;;;20.14;53.16;99974.41;5023452;28;1389;-33
2022/02/07 09:05:48;;;;;;;;;;;;;;;20.34;52.38;99996.47;5126255;27;1658;-36
2022/02/07 09:08:38;;;;;;;;;;;;;;;20.50;53.33;99997.53;5121041;27;1612;-36
2022/02/07 09:11:08;;;;;;;;;;;;;;;20.71;53.39;100005.13;5120719;28;1587;-36
2022/02/07 09:13:41;;;;;;;;;;;;;;;20.70;52.91;99995.41;5126996;27;1643;-36
2022/02/07 09:16:29;;;;;;;;;;;;;;;20.51;53.59;99983.91;5117970;28;1765;-36
2022/02/07 09:18:59;;;;;;;;;;;;;;;21.02;53.18;99967.72;5120392;28;1473;-36
2022/02/07 09:21:32;;;;;;;;;;;;;;;20.87;53.48;99972.94;5118114;27;1787;-36
2022/02/07 09:23:59;;;;;;;;;;;;;;;20.95;52.98;99978.31;5125405;27;1909;-37
2022/02/07 09:26:26;;;;;;;;;;;;;;;21.00;52.50;99975.13;5131369;28;1433;-36
2022/02/07 09:28:53;;;;;;;;;;;;;;;20.76;54.26;99960.66;5128036;27;1790;-36
2022/02/07 09:31:22;;;;;;;;;;;;;;;20.67;54.28;99964.31;5122110;27;1538;-37
2022/02/07 09:33:52;;;;;;;;;;;;;;;20.94;53.52;99960.50;5123435;27;1629;-37
2022/02/07 09:36:22;;;;;;;;;;;;;;;20.78;54.26;99961.31;5120160;28;1722;-36
2022/02/07 09:38:56;;;;;;;;;;;;;;;21.59;52.18;99942.63;5118950;28;1616;-37
2022/02/07 09:41:30;;;;;;;;;;;;;;;21.88;50.77;99957.31;5129088;28;1341;-36
2022/02/07 09:43:59;;;;;;;;;;;;;;;21.13;52.71;99942.34;5116058;28;1905;-36
2022/02/07 09:46:43;;;;;;;;;;;;;;;20.94;53.53;99946.22;5119244;28;1429;-37
2022/02/07 09:49:11;;;;;;;;;;;;;;;20.58;55.01;99927.69;5120082;27;1513;-36
2022/02/07 09:51:43;;;;;;;;;;;;;;;20.50;54.08;99925.84;5121500;28;1601;-37
2022/02/07 09:54:16;;;;;;;;;;;;;;;20.71;54.54;99924.53;5120069;28;1776;-37
2022/02/07 09:56:43;;;;;;;;;;;;;;;20.54;55.21;99926.34;5131132;27;1034;-37
2022/02/07 09:59:13;;;;;;;;;;;;;;;20.56;54.75;99935.91;5122832;27;1814;-37
2022/02/07 10:01:56;;;;;;;;;;;;;;;20.54;54.09;99932.56;5123161;27;1843;-37
2022/02/07 10:04:29;;;;;;;;;;;;;;;20.70;53.54;99914.81;5103927;28;1981;-37
2022/02/07 10:07:05;;;;;;;;;;;;;;;20.58;54.00;99907.03;5120594;28;1707;-37
2022/02/07 10:09:49;;;;;;;;;;;;;;;20.56;54.96;99921.66;5120457;28;1769;-37
2022/02/07 10:15:25;;;;;;;;;;;;;;;20.62;54.46;99900.38;5106610;28;1649;-37
2022/02/07 10:18:03;;;;;;;;;;;;;;;20.62;54.23;99897.69;5097079;28;1733;-37
2022/02/07 10:21:21;;;;;;;;;;;;;;;20.64;54.82;99884.91;5112143;28;1171;-37
2022/02/07 10:35:28;;;;;;;;;;;;;;;20.98;53.41;99864.25;5112684;28;1646;-37
2022/02/07 10:38:17;;;;;;;;;;;;;;;21.01;53.93;99837.88;5105811;28;1411;-36
2022/02/07 10:43:56;;;;;;;;;;;;;;;21.08;53.36;99850.63;5108232;28;1913;-37
2022/02/07 10:46:32;;;;;;;;;;;;;;;21.18;52.84;99827.91;5108005;28;1685;-37
2022/02/07 10:48:59;;;;;;;;;;;;;;;21.26;52.37;99824.34;5111394;28;1479;-37
2022/02/07 10:51:27;;;;;;;;;;;;;;;21.25;52.67;99815.44;5108479;28;2065;-37
2022/02/07 10:53:55;;;;;;;;;;;;;;;21.30;53.03;99840.97;5110507;28;1553;-36
2022/02/07 10:56:31;;;;;;;;;;;;;;;21.31;52.63;99831.88;5112927;28;1657;-36
2022/02/07 10:59:07;;;;;;;;;;;;;;;21.34;52.86;99823.47;5107289;28;1623;-36
2022/02/07 11:01:52;;;;;;;;;;;;;;;21.30;53.58;99839.13;5110485;28;1438;-37
2022/02/07 11:04:23;;;;;;;;;;;;;;;21.31;52.61;99834.56;5103759;28;1883;-37
2022/02/07 11:06:56;;;;;;;;;;;;;;;21.33;52.14;99800.28;5111379;28;1458;-37
2022/02/07 11:09:35;;;;;;;;;;;;;;;21.32;53.12;99786.00;5102575;28;1595;-36
2022/02/07 11:12:17;;;;;;;;;;;;;;;21.33;52.57;99785.00;5109861;28;1464;-36
2022/02/07 11:17:46;;;;;;;;;;;;;;;21.30;52.30;99779.97;5097591;28;1513;-37
2022/02/07 11:20:28;;;;;;;;;;;;;;;21.35;52.53;99777.59;5085542;28;1323;-36
2022/02/07 11:23:08;;;;;;;;;;;;;;;21.31;52.64;99770.91;5108463;28;1644;-37
2022/02/07 11:25:47;;;;;;;;;;;;;;;21.36;52.23;99773.06;5111385;28;1976;-36
2022/02/07 11:28:21;;;;;;;;;;;;;;;21.41;53.32;99770.69;5094445;28;1432;-36
2022/02/07 11:30:57;;;;;;;;;;;;;;;21.44;52.83;99757.72;5111109;28;1440;-36
2022/02/07 11:33:48;;;;;;;;;;;;;;;21.44;52.18;99756.91;5110919;28;1581;-36
2022/02/07 11:36:49;;;;;;;;;;;;;;;21.42;52.01;99754.34;5105930;28;1641;-37
2022/02/07 11:39:20;;;;;;;;;;;;;;;22.18;51.39;99759.09;5109413;28;1554;-37
2022/02/07 11:42:08;;;;;;;;;;;;;;;21.40;53.80;99761.75;5114414;28;1724;-36
2022/02/07 11:44:54;;;;;;;;;;;;;;;21.11;53.47;99745.41;5097428;28;1894;-36
2022/02/07 11:47:28;;;;;;;;;;;;;;;20.88;54.88;99781.13;5110074;28;1827;-36
2022/02/07 11:50:06;;;;;;;;;;;;;;;21.18;53.50;99754.47;5098770;28;1585;-36
2022/02/07 11:52:40;;;;;;;;;;;;;;;21.70;52.43;99761.97;5111194;28;1898;-36
2022/02/07 11:55:09;;;;;;;;;;;;;;;21.15;54.25;99752.97;5105698;28;1796;-36
2022/02/07 11:58:01;;;;;;;;;;;;;;;20.89;54.59;99781.94;5112176;28;1632;-36
2022/02/07 12:00:32;;;;;;;;;;;;;;;20.77;54.75;99771.56;5104713;28;1511;-37
2022/02/07 12:03:04;;;;;;;;;;;;;;;20.81;55.42;99758.63;5107467;28;1925;-36
2022/02/07 12:05:32;;;;;;;;;;;;;;;20.81;54.50;99770.22;5104554;28;2056;-36
2022/02/07 12:08:00;;;;;;;;;;;;;;;20.80;55.69;99770.38;5104481;28;1455;-36
2022/02/07 12:10:36;;;;;;;;;;;;;;;20.77;54.58;99768.91;5114335;28;1948;-36
2022/02/07 12:13:24;;;;;;;;;;;;;;;21.08;52.99;99746.63;5113230;28;1806;-36
2022/02/07 12:15:55;;;;;;;;;;;;;;;21.45;52.72;99758.59;5107484;28;1673;-36
2022/02/07 12:18:25;;;;;;;;;;;;;;;21.52;52.14;99753.34;5096958;28;1630;-36
2022/02/07 12:20:53;;;;;;;;;;;;;;;21.51;52.85;99751.69;5114462;28;1534;-37
2022/02/07 12:23:24;;;;;;;;;;;;;;;21.01;54.48;99746.47;5106411;28;1646;-36
2022/02/07 12:25:57;;;;;;;;;;;;;;;20.80;54.38;99757.78;5103997;28;1984;-36
2022/02/07 12:28:46;;;;;;;;;;;;;;;20.93;54.57;99770.69;5101959;28;1876;-36
2022/02/07 12:31:18;;;;;;;;;;;;;;;20.99;53.36;99743.13;5113102;28;1497;-36
2022/02/07 12:33:55;;;;;;;;;;;;;;;21.42;53.45;99754.34;5111467;28;1562;-36
2022/02/07 12:36:24;;;;;;;;;;;;;;;20.97;53.59;99739.78;5101382;28;1361;-36
2022/02/07 12:38:55;;;;;;;;;;;;;;;20.86;54.93;99775.06;5103534;28;1432;-36
2022/02/07 12:41:24;;;;;;;;;;;;;;;21.39;52.81;99735.88;5102608;28;1768;-36
2022/02/07 12:44:03;;;;;;;;;;;;;;;20.96;54.78;99789.16;5107414;28;1816;-37
2022/02/07 12:46:33;;;;;;;;;;;;;;;21.09;53.67;99756.38;5108373;28;1673;-37
2022/02/07 12:49:10;;;;;;;;;;;;;;;21.04;54.36;99759.56;5112135;28;1535;-37
2022/02/07 12:51:42;;;;;;;;;;;;;;;20.91;54.55;99761.09;5108492;28;1456;-37
2022/02/07 12:54:22;;;;;;;;;;;;;;;20.95;54.82;99757.94;5108901;28;1655;-37
2022/02/07 12:56:52;;;;;;;;;;;;;;;20.65;55.09;99768.41;5113355;28;1653;-37
2022/02/07 12:59:25;;;;;;;;;;;;;;;20.48;55.96;99772.09;5109531;28;1976;-37
2022/02/07 13:02:16;;;;;;;;;;;;;;;20.56;55.57;99777.44;5103101;28;1942;-37
2022/02/07 13:04:52;;;;;;;;;;;;;;;20.31;56.35;99762.34;5098569;28;1910;-37
2022/02/07 13:07:21;;;;;;;;;;;;;;;20.15;56.16;99766.72;5103199;28;1760;-37
2022/02/07 13:10:02;;;;;;;;;;;;;;;20.11;55.97;99781.47;5102729;28;1515;-37
2022/02/07 13:12:49;;;;;;;;;;;;;;;20.05;55.88;99769.59;5111207;28;1925;-38
2022/02/07 13:15:22;;;;;;;;;;;;;;;20.02;56.32;99790.53;5111326;28;1448;-38
2022/02/07 13:18:03;;;;;;;;;;;;;;;19.95;56.06;99768.06;5110262;28;1735;-38
2022/02/07 13:20:38;;;;;;;;;;;;;;;19.95;56.18;99776.09;5107240;28;1621;-38
2022/02/07 13:23:14;;;;;;;;;;;;;;;19.85;57.33;99781.63;5104201;28;1548;-38
2022/02/07 13:25:42;;;;;;;;;;;;;;;19.79;57.25;99793.00;5104745;28;1981;-37
2022/02/07 13:28:12;;;;;;;;;;;;;;;19.80;56.57;99783.97;5111145;28;1831;-38
2022/02/07 13:30:39;;;;;;;;;;;;;;;19.82;56.79;99780.13;5109646;28;1570;-38
2022/02/07 13:35:51;;;;;;;;;;;;;;;19.85;57.18;99777.09;5100332;28;2304;-37
2022/02/07 13:38:32;;;;;;;;;;;;;;;19.83;57.84;99795.19;5108601;28;1614;-38
2022/02/07 13:41:06;;;;;;;;;;;;;;;19.85;57.01;99782.44;5108321;28;1634;-38
2022/02/07 13:43:33;;;;;;;;;;;;;;;19.84;57.69;99779.94;5104752;28;1614;-38
2022/02/07 13:46:04;;;;;;;;;;;;;;;19.86;57.15;99786.81;5096759;28;1906;-39
2022/02/07 13:48:35;;;;;;;;;;;;;;;19.89;57.96;99777.59;5107138;28;1518;-37
2022/02/07 13:51:05;;;;;;;;;;;;;;;19.86;57.93;99781.47;5114286;28;1680;-37
2022/02/07 13:53:35;;;;;;;;;;;;;;;19.85;57.89;99760.97;5101769;28;1519;-38
2022/02/07 13:56:03;;;;;;;;;;;;;;;19.99;57.55;99764.84;5109569;28;1940;-37
2022/02/07 13:58:33;;;;;;;;;;;;;;;19.83;56.96;99746.06;5114229;28;1522;-37
2022/02/07 14:01:13;;;;;;;;;;;;;;;19.91;58.33;99770.22;5114384;28;1566;-38
2022/02/07 14:03:42;;;;;;;;;;;;;;;19.80;58.47;99763.34;5105535;28;1455;-37
2022/02/07 14:06:27;;;;;;;;;;;;;;;19.81;57.35;99751.59;5111082;28;1991;-38
2022/02/07 14:08:56;;;;;;;;;;;;;;;19.79;57.81;99742.88;5111835;28;1314;-37
2022/02/07 14:11:33;;;;;;;;;;;;;;;19.84;57.34;99748.59;5114573;28;1581;-37
2022/02/07 14:14:06;;;;;;;;;;;;;;;19.93;58.33;99751.28;5108311;28;1609;-37
2022/02/07 14:16:33;;;;;;;;;;;;;;;20.14;57.12;99759.69;5105021;28;2046;-37
2022/02/07 14:19:02;;;;;;;;;;;;;;;20.40;56.42;99750.63;5105238;28;1577;-37
2022/02/07 14:21:37;;;;;;;;;;;;;;;20.32;57.76;99739.88;5105586;28;1599;-37
2022/02/07 14:24:04;;;;;;;;;;;;;;;20.37;56.12;99750.94;5103217;28;1816;-37
2022/02/07 14:26:37;;;;;;;;;;;;;;;20.29;56.56;99749.09;5106522;28;1906;-37
2022/02/07 14:29:04;;;;;;;;;;;;;;;20.25;56.41;99737.03;5114668;28;1834;-37
2022/02/07 14:31:35;;;;;;;;;;;;;;;20.37;56.99;99721.41;5114543;28;1562;-37
2022/02/07 14:34:04;;;;;;;;;;;;;;;20.64;55.09;99729.09;5110987;28;1324;-37
2022/02/07 14:36:36;;;;;;;;;;;;;;;20.66;56.49;99747.75;5110709;28;1652;-37
2022/02/07 14:39:03;;;;;;;;;;;;;;;20.56;55.93;99753.28;5112737;28;1684;-37
2022/02/07 14:41:31;;;;;;;;;;;;;;;20.60;56.45;99733.16;5115895;28;1386;-37
2022/02/07 14:44:04;;;;;;;;;;;;;;;20.60;56.02;99738.53;5113109;28;1392;-37
2022/02/07 14:46:34;;;;;;;;;;;;;;;20.58;55.64;99731.63;5104576;28;1902;-37
2022/02/07 14:49:01;;;;;;;;;;;;;;;20.53;55.97;99718.72;5110114;28;1536;-37
2022/02/07 14:51:29;;;;;;;;;;;;;;;20.55;56.64;99729.25;5112947;28;1737;-38
2022/02/07 14:53:59;;;;;;;;;;;;;;;20.52;56.48;99741.19;5105081;28;1347;-37
2022/02/07 14:56:28;;;;;;;;;;;;;;;20.48;55.52;99747.91;5115575;28;1743;-37
2022/02/07 14:58:57;;;;;;;;;;;;;;;20.40;55.79;99738.03;5109185;28;1563;-37
2022/02/07 15:01:25;;;;;;;;;;;;;;;20.33;55.84;99728.13;5107645;28;1335;-37